createdAt,value
2018-03-31T00:00:44.841Z,9.10
2018-03-31T00:03:13.296Z,8.47
2018-03-31T00:05:41.055Z,9.30
2018-03-31T00:08:08.836Z,8.83
2018-03-31T00:10:36.594Z,7.83
2018-03-31T00:13:04.359Z,6.87
2018-03-31T00:15:32.127Z,7.23
2018-03-31T00:17:59.892Z,7.70
2018-03-31T00:20:27.652Z,7.00
2018-03-31T00:22:55.412Z,7.30
2018-03-31T00:25:23.198Z,5.43
2018-03-31T00:27:50.965Z,9.90
2018-03-31T00:30:18.726Z,6.70
2018-03-31T00:32:46.512Z,2.30
2018-03-31T00:35:15.040Z,3.50
2018-03-31T00:37:43.575Z,10.40
2018-03-31T00:40:11.348Z,6.67
2018-03-31T00:42:39.877Z,5.40
2018-03-31T00:45:08.461Z,2.30
2018-03-31T00:47:36.211Z,2.70
2018-03-31T00:50:04.763Z,2.83
2018-03-31T00:52:32.536Z,3.33
2018-03-31T00:55:00.300Z,4.27
2018-03-31T00:57:28.064Z,2.50
2018-03-31T00:59:55.833Z,4.00
2018-03-31T01:02:23.588Z,3.20
2018-03-31T01:04:51.359Z,5.20
2018-03-31T01:07:19.130Z,5.10
2018-03-31T01:09:47.651Z,3.30
2018-03-31T01:12:15.435Z,5.03
2018-03-31T01:14:43.199Z,6.50
2018-03-31T01:17:10.972Z,4.50
2018-03-31T01:19:38.747Z,6.17
2018-03-31T01:22:06.516Z,4.10
2018-03-31T01:24:35.177Z,2.90
2018-03-31T01:27:02.959Z,3.73
2018-03-31T01:29:30.765Z,9.27
2018-03-31T01:31:59.299Z,3.53
2018-03-31T01:34:27.131Z,2.87
2018-03-31T01:36:54.894Z,1.70
2018-03-31T01:39:22.666Z,2.30
2018-03-31T01:41:50.423Z,1.63
2018-03-31T01:44:18.199Z,3.27
2018-03-31T01:46:45.963Z,3.20
2018-03-31T01:49:13.723Z,2.80
2018-03-31T01:51:41.483Z,3.20
2018-03-31T01:54:09.251Z,11.80
2018-03-31T01:56:37.019Z,6.13
2018-03-31T01:59:04.799Z,7.20
2018-03-31T02:01:32.551Z,3.10
2018-03-31T02:04:00.309Z,3.53
2018-03-31T02:06:28.123Z,3.97
2018-03-31T02:08:55.859Z,3.30
2018-03-31T02:11:23.635Z,5.43
2018-03-31T02:13:51.470Z,3.37
2018-03-31T02:16:19.231Z,7.50
2018-03-31T02:18:46.994Z,4.20
2018-03-31T02:21:14.752Z,3.17
2018-03-31T02:23:42.515Z,6.00
2018-03-31T02:26:10.283Z,2.60
2018-03-31T02:28:38.055Z,2.83
2018-03-31T02:31:05.810Z,4.27
2018-03-31T02:33:33.573Z,2.60
2018-03-31T02:36:01.360Z,3.20
2018-03-31T02:38:29.128Z,3.07
2018-03-31T02:40:56.892Z,2.90
2018-03-31T02:43:24.674Z,10.37
2018-03-31T02:45:52.450Z,3.10
2018-03-31T02:48:20.210Z,6.30
2018-03-31T02:50:47.973Z,3.20
2018-03-31T02:53:15.766Z,4.30
2018-03-31T02:55:44.295Z,3.73
2018-03-31T02:58:12.062Z,2.80
2018-03-31T03:00:39.837Z,2.70
2018-03-31T03:03:07.597Z,2.20
2018-03-31T03:05:35.374Z,6.73
2018-03-31T03:08:04.636Z,3.53
2018-03-31T03:10:32.393Z,2.40
2018-03-31T03:13:00.165Z,2.67
2018-03-31T03:15:27.924Z,2.80
2018-03-31T03:17:55.684Z,4.17
2018-03-31T03:20:24.236Z,2.77
2018-03-31T03:22:52.758Z,3.00
2018-03-31T03:25:20.525Z,2.70
2018-03-31T03:27:48.280Z,3.97
2018-03-31T03:30:16.047Z,3.43
2018-03-31T03:32:43.804Z,2.90
2018-03-31T03:35:11.560Z,3.60
2018-03-31T03:37:39.332Z,3.60
2018-03-31T03:40:07.124Z,7.50
2018-03-31T03:42:34.880Z,3.90
2018-03-31T03:45:02.640Z,6.33
2018-03-31T03:47:30.408Z,3.10
2018-03-31T03:49:58.166Z,4.47
2018-03-31T03:52:25.943Z,3.70
2018-03-31T03:54:53.704Z,4.17
2018-03-31T03:57:22.603Z,5.37
2018-03-31T03:59:50.359Z,10.00
2018-03-31T04:02:18.194Z,4.07
2018-03-31T04:04:45.951Z,3.10
2018-03-31T04:07:14.495Z,4.00
2018-03-31T04:09:43.770Z,3.70
2018-03-31T04:12:11.535Z,3.93
2018-03-31T04:14:39.302Z,5.10
2018-03-31T04:17:07.070Z,5.13
2018-03-31T04:19:34.854Z,4.40
2018-03-31T04:22:02.636Z,7.53
2018-03-31T04:24:30.399Z,4.40
2018-03-31T04:26:58.171Z,4.13
2018-03-31T04:29:26.732Z,3.37
2018-03-31T04:31:54.569Z,4.40
2018-03-31T04:34:22.323Z,4.30
2018-03-31T04:36:50.127Z,3.23
2018-03-31T04:39:17.896Z,3.87
2018-03-31T04:41:45.659Z,5.67
2018-03-31T04:44:13.426Z,4.60
2018-03-31T04:46:41.185Z,5.70
2018-03-31T04:49:09.033Z,3.30
2018-03-31T04:51:36.894Z,4.47
2018-03-31T04:54:04.656Z,5.17
2018-03-31T04:56:32.496Z,5.80
2018-03-31T04:59:00.249Z,4.67
2018-03-31T05:01:28.776Z,6.40
2018-03-31T05:03:56.544Z,6.70
2018-03-31T05:06:24.312Z,4.10
2018-03-31T05:08:52.083Z,6.40
2018-03-31T05:11:19.839Z,10.60
2018-03-31T05:13:47.621Z,6.67
2018-03-31T05:16:16.264Z,6.13
2018-03-31T05:18:44.039Z,5.87
2018-03-31T05:21:11.807Z,7.17
2018-03-31T05:23:39.563Z,5.53
2018-03-31T05:26:07.338Z,5.47
2018-03-31T05:28:35.125Z,5.40
2018-03-31T05:31:03.023Z,7.77
2018-03-31T05:33:31.571Z,3.43
2018-03-31T05:36:00.844Z,5.57
2018-03-31T05:38:28.603Z,6.40
2018-03-31T05:40:56.397Z,6.30
2018-03-31T05:43:24.150Z,7.40
2018-03-31T05:45:51.920Z,6.70
2018-03-31T05:48:19.695Z,7.60
2018-03-31T05:50:47.538Z,7.90
2018-03-31T05:53:15.289Z,7.67
2018-03-31T05:55:43.081Z,8.47
2018-03-31T05:58:10.852Z,8.93
2018-03-31T06:00:38.612Z,7.30
2018-03-31T06:03:06.384Z,6.87
2018-03-31T06:05:34.168Z,6.60
2018-03-31T06:08:02.693Z,10.07
2018-03-31T06:10:30.468Z,9.10
2018-03-31T06:12:58.235Z,9.70
2018-03-31T06:15:26.034Z,6.90
2018-03-31T06:17:53.816Z,9.03
2018-03-31T06:20:21.596Z,6.60
2018-03-31T06:22:49.372Z,8.63
2018-03-31T06:25:17.154Z,5.60
2018-03-31T06:27:44.911Z,8.07
2018-03-31T06:30:12.675Z,7.20
2018-03-31T06:32:40.463Z,11.40
2018-03-31T06:35:08.239Z,9.93
2018-03-31T06:37:36.015Z,7.87
2018-03-31T06:40:03.793Z,10.03
2018-03-31T06:42:32.345Z,13.60
2018-03-31T06:45:00.110Z,11.70
2018-03-31T06:47:27.886Z,9.57
2018-03-31T06:49:55.670Z,9.03
2018-03-31T06:52:24.228Z,8.27
2018-03-31T06:54:52.030Z,10.00
2018-03-31T06:57:19.826Z,10.77
2018-03-31T06:59:47.596Z,9.63
2018-03-31T07:02:15.415Z,10.80
2018-03-31T07:04:43.965Z,12.90
2018-03-31T07:07:11.732Z,10.33
2018-03-31T07:09:39.501Z,8.77
2018-03-31T07:12:07.262Z,11.00
2018-03-31T07:14:35.806Z,7.60
2018-03-31T07:17:03.587Z,11.83
2018-03-31T07:19:31.366Z,11.13
2018-03-31T07:21:59.133Z,9.97
2018-03-31T07:24:26.949Z,10.50
2018-03-31T07:26:54.718Z,11.30
2018-03-31T07:29:22.480Z,12.37
2018-03-31T07:31:50.256Z,10.37
2018-03-31T07:34:18.023Z,13.03
2018-03-31T07:36:45.793Z,9.20
2018-03-31T07:39:13.580Z,9.80
2018-03-31T07:41:41.361Z,13.10
2018-03-31T07:44:09.130Z,13.47
2018-03-31T07:46:36.906Z,9.93
2018-03-31T07:49:05.541Z,10.77
2018-03-31T07:51:33.344Z,9.43
2018-03-31T07:54:01.117Z,9.17
2018-03-31T07:56:29.653Z,10.73
2018-03-31T07:58:57.424Z,7.97
2018-03-31T08:01:25.188Z,9.83
2018-03-31T08:03:53.004Z,9.90
2018-03-31T08:06:21.634Z,8.00
2018-03-31T08:08:49.499Z,10.30
2018-03-31T08:11:17.276Z,9.17
2018-03-31T08:13:45.053Z,9.83
2018-03-31T08:16:12.819Z,13.53
2018-03-31T08:18:40.659Z,9.23
2018-03-31T08:21:08.432Z,8.67
2018-03-31T08:23:36.226Z,9.67
2018-03-31T08:26:05.590Z,7.10
2018-03-31T08:28:33.348Z,9.00
2018-03-31T08:31:01.109Z,7.37
2018-03-31T08:33:28.910Z,8.40
2018-03-31T08:35:57.439Z,9.77
2018-03-31T08:38:25.211Z,8.70
2018-03-31T08:40:52.977Z,7.50
2018-03-31T08:43:20.757Z,7.63
2018-03-31T08:45:48.538Z,5.10
2018-03-31T08:48:16.323Z,6.90
2018-03-31T08:50:44.120Z,6.53
2018-03-31T08:53:12.758Z,7.13
2018-03-31T08:55:40.539Z,8.43
2018-03-31T08:58:08.548Z,7.30
2018-03-31T09:00:36.399Z,8.40
2018-03-31T09:03:04.924Z,6.57
2018-03-31T09:05:32.702Z,7.40
2018-03-31T09:08:00.639Z,9.20
2018-03-31T09:10:28.453Z,7.37
2018-03-31T09:12:56.387Z,10.17
2018-03-31T09:15:24.225Z,8.80
2018-03-31T09:17:51.996Z,9.73
2018-03-31T09:20:19.791Z,6.90
2018-03-31T09:22:47.555Z,7.93
2018-03-31T09:25:15.479Z,8.10
2018-03-31T09:27:43.250Z,8.87
2018-03-31T09:30:11.034Z,8.57
2018-03-31T09:32:38.806Z,9.30
2018-03-31T09:35:06.587Z,7.63
2018-03-31T09:37:34.417Z,5.80
2018-03-31T09:40:02.218Z,9.20
2018-03-31T09:42:30.810Z,6.50
2018-03-31T09:44:58.586Z,9.30
2018-03-31T09:47:26.369Z,7.80
2018-03-31T09:49:54.939Z,7.17
2018-03-31T09:52:23.480Z,7.57
2018-03-31T09:54:51.293Z,8.10
2018-03-31T09:57:19.865Z,8.63
2018-03-31T09:59:47.672Z,8.40
2018-03-31T10:02:15.568Z,7.00
2018-03-31T10:04:43.340Z,6.80
2018-03-31T10:07:11.129Z,7.30
2018-03-31T10:09:38.892Z,6.00
2018-03-31T10:12:07.443Z,7.10
2018-03-31T10:14:35.238Z,10.60
2018-03-31T10:17:03.795Z,6.40
2018-03-31T10:19:31.594Z,10.40
2018-03-31T10:22:00.179Z,8.80
2018-03-31T10:24:27.982Z,8.20
2018-03-31T10:26:55.779Z,8.10
2018-03-31T10:29:23.562Z,12.57
2018-03-31T10:31:52.131Z,7.00
2018-03-31T10:34:19.941Z,7.10
2018-03-31T10:36:47.901Z,9.40
2018-03-31T10:39:16.436Z,8.80
2018-03-31T10:41:44.551Z,10.37
2018-03-31T10:44:12.363Z,9.77
2018-03-31T10:46:40.231Z,8.40
2018-03-31T10:49:08.053Z,6.60
2018-03-31T10:51:36.610Z,8.20
2018-03-31T10:54:04.374Z,5.60
2018-03-31T10:56:32.936Z,6.70
2018-03-31T10:59:00.722Z,5.67
2018-03-31T11:01:28.512Z,4.00
2018-03-31T11:03:56.325Z,4.13
2018-03-31T11:06:24.168Z,7.70
2018-03-31T11:08:52.122Z,5.00
2018-03-31T11:11:19.912Z,4.33
2018-03-31T11:13:47.748Z,5.37
2018-03-31T11:16:15.517Z,5.37
2018-03-31T11:18:43.285Z,6.70
2018-03-31T11:21:11.175Z,4.20
2018-03-31T11:23:38.950Z,4.03
2018-03-31T11:26:06.714Z,5.03
2018-03-31T11:28:34.487Z,3.30
2018-03-31T11:31:02.286Z,3.63
2018-03-31T11:33:30.858Z,6.27
2018-03-31T11:35:59.419Z,5.60
2018-03-31T11:38:27.213Z,6.60
2018-03-31T11:40:55.759Z,4.40
2018-03-31T11:43:23.525Z,4.57
2018-03-31T11:45:52.425Z,5.33
2018-03-31T11:48:20.201Z,3.37
2018-03-31T11:50:48.796Z,5.60
2018-03-31T11:53:16.592Z,4.30
2018-03-31T11:55:44.383Z,4.07
2018-03-31T11:58:12.159Z,4.10
2018-03-31T12:00:39.974Z,4.97
2018-03-31T12:03:07.739Z,6.27
2018-03-31T12:05:35.637Z,6.30
2018-03-31T12:08:03.420Z,3.33
2018-03-31T12:10:31.257Z,3.77
2018-03-31T12:12:59.027Z,3.83
2018-03-31T12:15:26.825Z,3.63
2018-03-31T12:17:54.601Z,2.03
2018-03-31T12:20:23.160Z,3.10
2018-03-31T12:22:50.954Z,2.50
2018-03-31T12:25:18.758Z,3.53
2018-03-31T12:27:46.547Z,4.83
2018-03-31T12:30:14.405Z,3.93
2018-03-31T12:32:42.193Z,2.43
2018-03-31T12:35:09.992Z,2.30
2018-03-31T12:37:37.786Z,1.97
2018-03-31T12:40:06.349Z,3.50
2018-03-31T12:42:34.144Z,2.47
2018-03-31T12:45:02.631Z,2.83
2018-03-31T12:47:30.496Z,4.93
2018-03-31T12:49:58.314Z,2.13
2018-03-31T12:52:26.108Z,1.83
2018-03-31T12:54:53.898Z,2.00
2018-03-31T12:57:21.695Z,1.83
2018-03-31T12:59:49.472Z,1.63
2018-03-31T13:02:18.102Z,4.23
2018-03-31T13:04:45.968Z,2.50
2018-03-31T13:07:13.772Z,1.37
2018-03-31T13:09:42.326Z,1.30
2018-03-31T13:12:10.715Z,1.80
2018-03-31T13:14:38.579Z,1.83
2018-03-31T13:17:06.436Z,14.00
2018-03-31T13:19:34.284Z,2.57
2018-03-31T13:22:02.154Z,1.93
2018-03-31T13:24:30.031Z,4.20
2018-03-31T13:26:57.806Z,2.40
2018-03-31T13:29:25.632Z,1.30
2018-03-31T13:31:54.170Z,1.90
2018-03-31T13:34:22.007Z,1.07
2018-03-31T13:36:49.782Z,2.20
2018-03-31T13:39:17.742Z,4.67
2018-03-31T13:41:45.630Z,1.90
2018-03-31T13:44:14.400Z,2.40
2018-03-31T13:46:42.178Z,1.30
2018-03-31T13:49:10.006Z,1.90
2018-03-31T13:51:37.788Z,3.23
2018-03-31T13:54:07.082Z,3.93
2018-03-31T13:56:34.870Z,1.30
2018-03-31T13:59:03.425Z,1.50
2018-03-31T14:01:31.217Z,3.43
2018-03-31T14:03:58.998Z,1.40
2018-03-31T14:06:26.833Z,2.43
2018-03-31T14:08:54.620Z,1.60
2018-03-31T14:11:22.398Z,6.33
2018-03-31T14:13:51.825Z,1.37
2018-03-31T14:16:20.401Z,1.27
2018-03-31T14:18:48.981Z,1.60
2018-03-31T14:21:17.530Z,1.70
2018-03-31T14:23:45.380Z,1.30
2018-03-31T14:26:13.198Z,1.97
2018-03-31T14:28:41.742Z,2.13
2018-03-31T14:31:09.527Z,3.07
2018-03-31T14:33:37.326Z,1.37
2018-03-31T14:36:05.129Z,1.73
2018-03-31T14:38:32.912Z,1.40
2018-03-31T14:41:00.934Z,3.80
2018-03-31T14:43:28.755Z,3.60
2018-03-31T14:45:57.304Z,4.40
2018-03-31T14:48:25.108Z,1.27
2018-03-31T14:50:53.068Z,2.70
2018-03-31T14:53:20.842Z,2.00
2018-03-31T14:55:48.602Z,2.20
2018-03-31T14:58:16.393Z,3.53
2018-03-31T15:00:44.212Z,9.10
2018-03-31T15:03:12.013Z,1.70
2018-03-31T15:05:39.794Z,2.40
2018-03-31T15:08:07.588Z,1.80
2018-03-31T15:10:35.520Z,2.33
2018-03-31T15:13:03.265Z,1.80
2018-03-31T15:15:31.861Z,1.40
2018-03-31T15:18:00.413Z,2.03
2018-03-31T15:20:28.249Z,1.90
2018-03-31T15:22:56.018Z,3.13
2018-03-31T15:25:23.811Z,1.30
2018-03-31T15:27:51.575Z,1.77
2018-03-31T15:30:19.366Z,4.30
2018-03-31T15:32:47.910Z,2.10
2018-03-31T15:35:16.736Z,4.60
2018-03-31T15:37:45.368Z,2.37
2018-03-31T15:40:13.145Z,2.50
2018-03-31T15:42:40.940Z,2.60
2018-03-31T15:45:08.750Z,1.50
2018-03-31T15:47:36.532Z,1.93
2018-03-31T15:50:04.330Z,4.20
2018-03-31T15:52:32.894Z,3.00
2018-03-31T15:55:01.382Z,3.13
2018-03-31T15:57:29.150Z,7.27
2018-03-31T15:59:56.989Z,2.47
2018-03-31T16:02:24.859Z,3.73
2018-03-31T16:04:52.732Z,3.23
2018-03-31T16:07:20.509Z,2.20
2018-03-31T16:09:48.279Z,1.77
2018-03-31T16:12:16.051Z,1.30
2018-03-31T16:14:44.603Z,2.90
2018-03-31T16:17:12.382Z,4.30
2018-03-31T16:19:41.014Z,1.80
2018-03-31T16:22:08.824Z,3.70
2018-03-31T16:24:36.588Z,1.80
2018-03-31T16:27:04.394Z,3.37
2018-03-31T16:29:32.168Z,2.93
2018-03-31T16:31:59.946Z,2.67
2018-03-31T16:34:27.762Z,2.80
2018-03-31T16:36:55.554Z,4.20
2018-03-31T16:39:24.156Z,4.67
2018-03-31T16:41:51.961Z,4.37
2018-03-31T16:44:19.791Z,5.07
2018-03-31T16:46:47.601Z,3.07
2018-03-31T16:49:15.373Z,2.33
2018-03-31T16:51:43.213Z,3.23
2018-03-31T16:54:11.012Z,8.53
2018-03-31T16:56:39.547Z,5.13
2018-03-31T16:59:07.345Z,3.40
2018-03-31T17:01:35.112Z,2.13
2018-03-31T17:04:02.961Z,3.87
2018-03-31T17:06:31.535Z,2.27
2018-03-31T17:08:59.379Z,3.10
2018-03-31T17:11:27.608Z,6.97
2018-03-31T17:13:55.391Z,7.80
2018-03-31T17:16:23.944Z,3.10
2018-03-31T17:18:51.729Z,2.20
2018-03-31T17:21:20.266Z,6.73
2018-03-31T17:23:48.037Z,5.13
2018-03-31T17:26:15.902Z,3.57
2018-03-31T17:28:43.673Z,2.50
2018-03-31T17:31:11.451Z,7.50
2018-03-31T17:33:39.214Z,10.60
2018-03-31T17:36:06.994Z,4.60
2018-03-31T17:38:35.570Z,2.60
2018-03-31T17:41:03.326Z,3.60
2018-03-31T17:43:31.114Z,3.40
2018-03-31T17:45:59.655Z,3.63
2018-03-31T17:48:27.429Z,4.30
2018-03-31T17:50:55.221Z,6.50
2018-03-31T17:53:22.999Z,5.60
2018-03-31T17:55:51.532Z,7.57
2018-03-31T17:58:19.320Z,4.43
2018-03-31T18:00:47.780Z,3.83
2018-03-31T18:03:15.623Z,8.87
2018-03-31T18:05:43.400Z,4.50
2018-03-31T18:08:11.227Z,7.70
2018-03-31T18:10:39.762Z,4.60
2018-03-31T18:13:07.525Z,3.53
2018-03-31T18:15:35.323Z,7.20
2018-03-31T18:18:03.850Z,3.73
2018-03-31T18:20:31.621Z,5.57
2018-03-31T18:22:59.389Z,5.83
2018-03-31T18:25:27.146Z,7.80
2018-03-31T18:27:54.916Z,5.40
2018-03-31T18:30:22.794Z,6.67
2018-03-31T18:32:50.560Z,7.87
2018-03-31T18:35:18.314Z,9.43
2018-03-31T18:37:46.079Z,6.63
2018-03-31T18:40:13.863Z,9.40
2018-03-31T18:42:41.626Z,16.67
2018-03-31T18:45:11.008Z,12.50
2018-03-31T18:47:38.812Z,16.10
2018-03-31T18:50:06.596Z,20.57
2018-03-31T18:52:35.330Z,19.40
2018-03-31T18:55:03.110Z,16.40
2018-03-31T18:57:30.891Z,17.70
2018-03-31T18:59:59.435Z,19.60
2018-03-31T19:02:27.219Z,15.70
2018-03-31T19:04:55.012Z,13.80
2018-03-31T19:07:23.722Z,17.60
2018-03-31T19:09:52.286Z,12.30
2018-03-31T19:12:20.839Z,12.43
2018-03-31T19:14:48.627Z,12.47
2018-03-31T19:17:17.240Z,13.23
2018-03-31T19:19:45.020Z,14.47
2018-03-31T19:22:12.822Z,17.57
2018-03-31T19:24:47.244Z,12.87
2018-03-31T19:27:15.059Z,15.10
2018-03-31T19:29:43.601Z,13.80
2018-03-31T19:32:11.358Z,15.93
2018-03-31T19:34:39.123Z,11.57
2018-03-31T19:37:06.891Z,18.23
2018-03-31T19:39:50.551Z,14.77
2018-03-31T19:42:18.361Z,13.87
2018-03-31T19:44:46.150Z,16.20
2018-03-31T19:47:13.911Z,12.00
2018-03-31T19:49:41.682Z,14.70
2018-03-31T19:52:10.988Z,13.70
2018-03-31T19:54:38.746Z,15.03
2018-03-31T19:57:06.520Z,14.80
2018-03-31T19:59:35.049Z,13.37
2018-03-31T20:02:02.815Z,17.90
2018-03-31T20:04:30.630Z,15.63
2018-03-31T20:06:59.196Z,15.00
2018-03-31T20:09:26.971Z,12.97
2018-03-31T20:11:54.755Z,15.93
2018-03-31T20:14:23.319Z,13.37
2018-03-31T20:16:51.874Z,18.27
2018-03-31T20:19:19.651Z,19.60
2018-03-31T20:21:47.435Z,22.00
2018-03-31T20:24:15.991Z,28.17
2018-03-31T20:26:43.867Z,13.53
2018-03-31T20:29:12.160Z,14.93
2018-03-31T20:31:39.935Z,17.10
2018-03-31T20:34:08.506Z,17.30
2018-03-31T20:36:36.495Z,15.70
2018-03-31T20:39:04.291Z,14.13
2018-03-31T20:41:32.128Z,16.33
2018-03-31T20:44:00.683Z,18.97
2018-03-31T20:46:28.474Z,18.23
2018-03-31T20:48:57.023Z,17.30
2018-03-31T20:51:24.815Z,16.07
2018-03-31T20:53:53.377Z,18.60
2018-03-31T20:56:21.222Z,18.20
2018-03-31T20:58:48.990Z,21.23
2018-03-31T21:01:16.957Z,17.93
2018-03-31T21:03:44.731Z,22.83
2018-03-31T21:06:12.507Z,24.60
2018-03-31T21:08:40.445Z,26.00
2018-03-31T21:11:08.241Z,22.67
2018-03-31T21:13:36.030Z,15.07
2018-03-31T21:16:03.822Z,22.67
2018-03-31T21:18:31.592Z,18.70
2018-03-31T21:20:59.465Z,17.93
2018-03-31T21:23:27.239Z,18.80
2018-03-31T21:25:55.055Z,16.57
2018-03-31T21:28:23.797Z,19.80
2018-03-31T21:30:51.586Z,21.67
2018-03-31T21:33:19.381Z,23.97
2018-03-31T21:35:47.933Z,18.40
2018-03-31T21:38:16.520Z,24.33
2018-03-31T21:40:45.095Z,21.70
2018-03-31T21:43:12.871Z,22.07
2018-03-31T21:45:41.429Z,21.67
2018-03-31T21:48:09.217Z,19.47
2018-03-31T21:50:37.774Z,26.40
2018-03-31T21:53:05.560Z,22.60
2018-03-31T21:55:33.331Z,19.43
2018-03-31T21:58:01.897Z,22.00
2018-03-31T22:00:29.691Z,19.07
2018-03-31T22:02:58.242Z,19.80
2018-03-31T22:05:26.027Z,24.03
2018-03-31T22:07:54.564Z,19.37
2018-03-31T22:10:22.340Z,17.40
2018-03-31T22:12:50.147Z,23.67
2018-03-31T22:15:24.393Z,19.50
2018-03-31T22:17:52.450Z,21.47
2018-03-31T22:20:20.222Z,23.20
2018-03-31T22:22:47.995Z,23.90
2018-03-31T22:25:15.784Z,25.40
2018-03-31T22:27:43.560Z,18.33
2018-03-31T22:30:11.330Z,22.50
2018-03-31T22:32:39.133Z,21.57
2018-03-31T22:35:06.901Z,25.37
2018-03-31T22:37:34.685Z,21.57
2018-03-31T22:40:02.458Z,21.63
2018-03-31T22:42:30.334Z,21.23
2018-03-31T22:44:58.125Z,20.87
2018-03-31T22:47:25.909Z,23.23
2018-03-31T22:49:54.487Z,18.57
2018-03-31T22:52:23.047Z,22.57
2018-03-31T22:54:50.819Z,19.27
2018-03-31T22:57:18.593Z,14.33
2018-03-31T22:59:47.182Z,19.00
2018-03-31T23:02:14.968Z,21.43
2018-03-31T23:04:42.742Z,26.47
2018-03-31T23:07:10.517Z,20.70
2018-03-31T23:09:38.298Z,21.70
2018-03-31T23:12:06.088Z,30.27
2018-03-31T23:14:35.363Z,21.90
2018-03-31T23:17:03.163Z,21.03
2018-03-31T23:19:31.711Z,17.80
2018-03-31T23:21:59.491Z,22.60
2018-03-31T23:24:28.164Z,21.77
2018-03-31T23:26:55.931Z,17.63
2018-03-31T23:29:23.971Z,29.90
2018-03-31T23:31:51.738Z,24.80
2018-03-31T23:34:19.523Z,19.17
2018-03-31T23:36:47.313Z,20.03
2018-03-31T23:39:15.092Z,25.13
2018-03-31T23:41:43.638Z,19.10
2018-03-31T23:44:11.425Z,19.50
2018-03-31T23:46:39.224Z,22.43
2018-03-31T23:49:07.001Z,20.90
2018-03-31T23:51:34.778Z,19.07
2018-03-31T23:54:02.672Z,22.20
2018-03-31T23:56:30.468Z,23.60
2018-03-31T23:58:58.274Z,15.43
